sensor_id;sensor_type;location;lat;lon;timestamp;temperature;humidity
47765;DHT22;33529;49.242;8.670;2022-10-04T00:01:58;8.40;99.90
47765;DHT22;33529;49.242;8.670;2022-10-04T00:04:29;8.40;99.90
47765;DHT22;33529;49.242;8.670;2022-10-04T00:07:05;8.30;99.90
47765;DHT22;33529;49.242;8.670;2022-10-04T00:09:35;8.30;99.90
47765;DHT22;33529;49.242;8.670;2022-10-04T00:14:45;8.20;99.90
47765;DHT22;33529;49.242;8.670;2022-10-04T00:17:17;8.20;99.90
47765;DHT22;33529;49.242;8.670;2022-10-04T00:19:49;8.20;99.90
47765;DHT22;33529;49.242;8.670;2022-10-04T00:27:34;8.20;99.90
47765;DHT22;33529;49.242;8.670;2022-10-04T00:32:59;8.20;99.90
47765;DHT22;33529;49.242;8.670;2022-10-04T00:38:07;8.20;99.90
47765;DHT22;33529;49.242;8.670;2022-10-04T00:40:40;8.10;99.90
47765;DHT22;33529;49.242;8.670;2022-10-04T00:43:15;8.10;99.90
47765;DHT22;33529;49.242;8.670;2022-10-04T00:45:47;8.10;99.90
47765;DHT22;33529;49.242;8.670;2022-10-04T00:48:29;8.20;99.90
47765;DHT22;33529;49.242;8.670;2022-10-04T00:54:04;8.10;99.90
47765;DHT22;33529;49.242;8.670;2022-10-04T01:02:14;8.10;99.90
47765;DHT22;33529;49.242;8.670;2022-10-04T01:07:25;8.00;99.90
47765;DHT22;33529;49.242;8.670;2022-10-04T01:09:58;8.10;99.90
47765;DHT22;33529;49.242;8.670;2022-10-04T01:15:41;8.10;99.90
47765;DHT22;33529;49.242;8.670;2022-10-04T01:20:58;8.00;99.90
47765;DHT22;33529;49.242;8.670;2022-10-04T01:29:04;8.10;99.90
47765;DHT22;33529;49.242;8.670;2022-10-04T01:31:33;8.00;99.90
47765;DHT22;33529;49.242;8.670;2022-10-04T01:34:02;8.00;99.90
47765;DHT22;33529;49.242;8.670;2022-10-04T01:36:31;8.00;99.90
47765;DHT22;33529;49.242;8.670;2022-10-04T01:38:59;8.00;99.90
47765;DHT22;33529;49.242;8.670;2022-10-04T01:41:32;8.00;99.90
47765;DHT22;33529;49.242;8.670;2022-10-04T01:44:03;8.00;99.90
47765;DHT22;33529;49.242;8.670;2022-10-04T01:46:34;8.00;99.90
47765;DHT22;33529;49.242;8.670;2022-10-04T01:49:09;7.90;99.90
47765;DHT22;33529;49.242;8.670;2022-10-04T01:51:43;7.90;99.90
47765;DHT22;33529;49.242;8.670;2022-10-04T01:54:18;7.90;99.90
47765;DHT22;33529;49.242;8.670;2022-10-04T01:57:18;7.90;99.90
47765;DHT22;33529;49.242;8.670;2022-10-04T02:00:01;7.90;99.90
47765;DHT22;33529;49.242;8.670;2022-10-04T02:02:38;7.80;99.90
47765;DHT22;33529;49.242;8.670;2022-10-04T02:05:11;7.80;99.90
47765;DHT22;33529;49.242;8.670;2022-10-04T02:07:40;7.80;99.90
47765;DHT22;33529;49.242;8.670;2022-10-04T02:10:16;7.80;99.90
47765;DHT22;33529;49.242;8.670;2022-10-04T02:12:47;7.80;99.90
47765;DHT22;33529;49.242;8.670;2022-10-04T02:15:16;7.90;99.90
47765;DHT22;33529;49.242;8.670;2022-10-04T02:17:44;7.80;99.90
47765;DHT22;33529;49.242;8.670;2022-10-04T02:20:16;7.80;99.90
47765;DHT22;33529;49.242;8.670;2022-10-04T02:22:48;7.80;99.90
47765;DHT22;33529;49.242;8.670;2022-10-04T02:25:17;7.70;99.90
47765;DHT22;33529;49.242;8.670;2022-10-04T02:27:45;7.80;99.90
47765;DHT22;33529;49.242;8.670;2022-10-04T02:30:13;7.80;99.90
47765;DHT22;33529;49.242;8.670;2022-10-04T02:32:41;7.70;99.90
47765;DHT22;33529;49.242;8.670;2022-10-04T02:35:35;7.70;99.90
47765;DHT22;33529;49.242;8.670;2022-10-04T02:38:20;7.70;99.90
47765;DHT22;33529;49.242;8.670;2022-10-04T02:40:58;7.70;99.90
47765;DHT22;33529;49.242;8.670;2022-10-04T02:43:45;7.70;99.90
47765;DHT22;33529;49.242;8.670;2022-10-04T02:46:35;7.70;99.90
47765;DHT22;33529;49.242;8.670;2022-10-04T02:49:48;7.70;99.90
47765;DHT22;33529;49.242;8.670;2022-10-04T02:52:11;7.70;99.90
47765;DHT22;33529;49.242;8.670;2022-10-04T02:54:53;7.70;99.90
47765;DHT22;33529;49.242;8.670;2022-10-04T02:57:22;7.60;99.90
47765;DHT22;33529;49.242;8.670;2022-10-04T02:59:54;7.60;99.90
47765;DHT22;33529;49.242;8.670;2022-10-04T03:02:29;7.50;99.90
47765;DHT22;33529;49.242;8.670;2022-10-04T03:05:04;7.50;99.90
47765;DHT22;33529;49.242;8.670;2022-10-04T03:07:33;7.50;99.90
47765;DHT22;33529;49.242;8.670;2022-10-04T03:10:02;7.50;99.90
47765;DHT22;33529;49.242;8.670;2022-10-04T03:12:32;7.50;99.90
47765;DHT22;33529;49.242;8.670;2022-10-04T03:15:00;7.50;99.90
47765;DHT22;33529;49.242;8.670;2022-10-04T03:17:27;7.50;99.90
47765;DHT22;33529;49.242;8.670;2022-10-04T03:19:56;7.60;99.90
47765;DHT22;33529;49.242;8.670;2022-10-04T03:22:23;7.50;99.90
47765;DHT22;33529;49.242;8.670;2022-10-04T03:24:52;7.50;99.90
47765;DHT22;33529;49.242;8.670;2022-10-04T03:27:32;7.50;99.90
47765;DHT22;33529;49.242;8.670;2022-10-04T03:30:00;7.60;99.90
47765;DHT22;33529;49.242;8.670;2022-10-04T03:32:28;7.50;99.90
47765;DHT22;33529;49.242;8.670;2022-10-04T03:34:59;7.60;99.90
47765;DHT22;33529;49.242;8.670;2022-10-04T03:37:28;7.60;99.90
47765;DHT22;33529;49.242;8.670;2022-10-04T03:39:56;7.50;99.90
47765;DHT22;33529;49.242;8.670;2022-10-04T03:42:29;7.50;99.90
47765;DHT22;33529;49.242;8.670;2022-10-04T03:45:00;7.50;99.90
47765;DHT22;33529;49.242;8.670;2022-10-04T03:47:37;7.50;99.90
47765;DHT22;33529;49.242;8.670;2022-10-04T03:50:20;7.50;99.90
47765;DHT22;33529;49.242;8.670;2022-10-04T03:52:55;7.50;99.90
47765;DHT22;33529;49.242;8.670;2022-10-04T03:55:33;7.50;99.90
47765;DHT22;33529;49.242;8.670;2022-10-04T03:58:02;7.50;99.90
47765;DHT22;33529;49.242;8.670;2022-10-04T04:00:29;7.50;99.90
47765;DHT22;33529;49.242;8.670;2022-10-04T04:03:02;7.50;99.90
47765;DHT22;33529;49.242;8.670;2022-10-04T04:05:34;7.50;99.90
47765;DHT22;33529;49.242;8.670;2022-10-04T04:10:52;7.50;99.90
47765;DHT22;33529;49.242;8.670;2022-10-04T04:13:30;7.50;99.90
47765;DHT22;33529;49.242;8.670;2022-10-04T04:16:00;7.50;99.90
47765;DHT22;33529;49.242;8.670;2022-10-04T04:18:33;7.50;99.90
47765;DHT22;33529;49.242;8.670;2022-10-04T04:21:02;7.60;99.90
47765;DHT22;33529;49.242;8.670;2022-10-04T04:23:36;7.60;99.90
47765;DHT22;33529;49.242;8.670;2022-10-04T04:26:24;7.60;99.90
47765;DHT22;33529;49.242;8.670;2022-10-04T04:29:01;7.70;99.90
47765;DHT22;33529;49.242;8.670;2022-10-04T04:31:39;7.70;99.90
47765;DHT22;33529;49.242;8.670;2022-10-04T04:34:45;7.80;99.90
47765;DHT22;33529;49.242;8.670;2022-10-04T04:37:14;7.80;99.90
47765;DHT22;33529;49.242;8.670;2022-10-04T04:39:41;7.80;99.90
47765;DHT22;33529;49.242;8.670;2022-10-04T04:42:18;7.90;99.90
47765;DHT22;33529;49.242;8.670;2022-10-04T04:44:55;7.80;99.90
47765;DHT22;33529;49.242;8.670;2022-10-04T04:47:38;7.70;99.90
47765;DHT22;33529;49.242;8.670;2022-10-04T04:50:27;7.80;99.90
47765;DHT22;33529;49.242;8.670;2022-10-04T04:53:13;7.70;99.90
47765;DHT22;33529;49.242;8.670;2022-10-04T04:55:43;7.70;99.90
47765;DHT22;33529;49.242;8.670;2022-10-04T04:58:37;7.60;99.90
47765;DHT22;33529;49.242;8.670;2022-10-04T05:01:05;7.50;99.90
47765;DHT22;33529;49.242;8.670;2022-10-04T05:03:33;7.50;99.90
47765;DHT22;33529;49.242;8.670;2022-10-04T05:06:01;7.50;99.90
47765;DHT22;33529;49.242;8.670;2022-10-04T05:08:33;7.50;99.90
47765;DHT22;33529;49.242;8.670;2022-10-04T05:16:18;7.40;99.90
47765;DHT22;33529;49.242;8.670;2022-10-04T05:18:45;7.50;99.90
47765;DHT22;33529;49.242;8.670;2022-10-04T05:21:22;7.50;99.90
47765;DHT22;33529;49.242;8.670;2022-10-04T05:23:51;7.50;99.90
47765;DHT22;33529;49.242;8.670;2022-10-04T05:26:29;7.50;99.90
47765;DHT22;33529;49.242;8.670;2022-10-04T05:29:00;7.50;99.90
47765;DHT22;33529;49.242;8.670;2022-10-04T05:31:48;7.50;99.90
47765;DHT22;33529;49.242;8.670;2022-10-04T05:34:25;7.40;99.90
47765;DHT22;33529;49.242;8.670;2022-10-04T05:37:08;7.40;99.90
47765;DHT22;33529;49.242;8.670;2022-10-04T05:42:40;7.50;99.90
47765;DHT22;33529;49.242;8.670;2022-10-04T05:45:17;7.50;99.90
47765;DHT22;33529;49.242;8.670;2022-10-04T05:47:46;7.60;99.90
47765;DHT22;33529;49.242;8.670;2022-10-04T05:50:33;7.60;99.90
47765;DHT22;33529;49.242;8.670;2022-10-04T05:53:22;7.60;99.90
47765;DHT22;33529;49.242;8.670;2022-10-04T05:58:33;7.70;99.90
47765;DHT22;33529;49.242;8.670;2022-10-04T06:09:37;8.00;99.90
47765;DHT22;33529;49.242;8.670;2022-10-04T06:15:13;8.10;99.90
47765;DHT22;33529;49.242;8.670;2022-10-04T06:18:04;8.10;99.90
47765;DHT22;33529;49.242;8.670;2022-10-04T06:23:25;8.20;99.90
47765;DHT22;33529;49.242;8.670;2022-10-04T06:25:59;8.20;99.90
47765;DHT22;33529;49.242;8.670;2022-10-04T06:28:36;8.20;99.90
47765;DHT22;33529;49.242;8.670;2022-10-04T06:39:29;8.20;99.90
47765;DHT22;33529;49.242;8.670;2022-10-04T07:01:52;8.50;99.90
47765;DHT22;33529;49.242;8.670;2022-10-04T07:04:32;8.50;99.90
47765;DHT22;33529;49.242;8.670;2022-10-04T07:07:23;8.70;99.90
47765;DHT22;33529;49.242;8.670;2022-10-04T07:09:59;8.70;99.90
47765;DHT22;33529;49.242;8.670;2022-10-04T07:12:28;8.90;99.90
47765;DHT22;33529;49.242;8.670;2022-10-04T07:15:00;8.90;99.90
47765;DHT22;33529;49.242;8.670;2022-10-04T07:17:40;9.00;99.90
47765;DHT22;33529;49.242;8.670;2022-10-04T07:20:22;9.00;99.90
47765;DHT22;33529;49.242;8.670;2022-10-04T07:22:59;9.00;99.90
47765;DHT22;33529;49.242;8.670;2022-10-04T07:25:35;9.10;99.90
47765;DHT22;33529;49.242;8.670;2022-10-04T07:28:11;9.20;99.90
47765;DHT22;33529;49.242;8.670;2022-10-04T07:31:08;9.30;99.90
47765;DHT22;33529;49.242;8.670;2022-10-04T07:33:47;9.40;99.90
47765;DHT22;33529;49.242;8.670;2022-10-04T07:36:20;9.40;99.90
47765;DHT22;33529;49.242;8.670;2022-10-04T07:38:52;9.40;99.90
47765;DHT22;33529;49.242;8.670;2022-10-04T07:41:33;9.50;99.90
47765;DHT22;33529;49.242;8.670;2022-10-04T07:44:05;9.60;99.90
47765;DHT22;33529;49.242;8.670;2022-10-04T07:46:45;9.70;99.90
47765;DHT22;33529;49.242;8.670;2022-10-04T07:49:16;9.90;99.90
47765;DHT22;33529;49.242;8.670;2022-10-04T07:55:04;10.00;99.90
47765;DHT22;33529;49.242;8.670;2022-10-04T08:00:16;10.10;99.90
47765;DHT22;33529;49.242;8.670;2022-10-04T08:05:23;10.20;99.90
47765;DHT22;33529;49.242;8.670;2022-10-04T08:13:57;10.50;99.90
47765;DHT22;33529;49.242;8.670;2022-10-04T08:16:43;10.60;99.90
47765;DHT22;33529;49.242;8.670;2022-10-04T08:24:48;11.00;99.90
47765;DHT22;33529;49.242;8.670;2022-10-04T08:27:50;11.20;99.90
47765;DHT22;33529;49.242;8.670;2022-10-04T08:30:58;11.10;99.90
47765;DHT22;33529;49.242;8.670;2022-10-04T08:33:53;11.10;99.90
47765;DHT22;33529;49.242;8.670;2022-10-04T08:36:45;11.30;99.90
47765;DHT22;33529;49.242;8.670;2022-10-04T08:42:41;11.60;99.90
47765;DHT22;33529;49.242;8.670;2022-10-04T09:02:32;12.60;99.90
47765;DHT22;33529;49.242;8.670;2022-10-04T09:16:15;12.90;99.90
47765;DHT22;33529;49.242;8.670;2022-10-04T09:24:52;13.10;99.90
47765;DHT22;33529;49.242;8.670;2022-10-04T09:30:22;13.30;99.90
47765;DHT22;33529;49.242;8.670;2022-10-04T09:33:07;13.50;99.90
47765;DHT22;33529;49.242;8.670;2022-10-04T09:35:59;13.60;99.90
47765;DHT22;33529;49.242;8.670;2022-10-04T09:38:51;13.50;99.90
47765;DHT22;33529;49.242;8.670;2022-10-04T09:47:43;13.70;99.90
47765;DHT22;33529;49.242;8.670;2022-10-04T10:05:18;14.90;99.90
47765;DHT22;33529;49.242;8.670;2022-10-04T10:11:14;15.10;99.90
47765;DHT22;33529;49.242;8.670;2022-10-04T10:20:12;15.00;99.90
47765;DHT22;33529;49.242;8.670;2022-10-04T10:26:06;14.80;99.90
47765;DHT22;33529;49.242;8.670;2022-10-04T10:29:21;14.80;99.90
47765;DHT22;33529;49.242;8.670;2022-10-04T10:32:01;14.90;99.90
47765;DHT22;33529;49.242;8.670;2022-10-04T10:34:56;15.10;99.90
47765;DHT22;33529;49.242;8.670;2022-10-04T10:40:26;15.30;99.90
47765;DHT22;33529;49.242;8.670;2022-10-04T10:43:00;15.30;99.90
47765;DHT22;33529;49.242;8.670;2022-10-04T10:48:14;15.50;99.90
47765;DHT22;33529;49.242;8.670;2022-10-04T10:50:59;15.60;99.90
47765;DHT22;33529;49.242;8.670;2022-10-04T11:10:53;15.90;99.90
47765;DHT22;33529;49.242;8.670;2022-10-04T11:16:35;15.90;99.90
47765;DHT22;33529;49.242;8.670;2022-10-04T11:28:08;16.20;99.90
47765;DHT22;33529;49.242;8.670;2022-10-04T11:31:25;16.40;99.90
47765;DHT22;33529;49.242;8.670;2022-10-04T11:39:22;16.70;99.90
47765;DHT22;33529;49.242;8.670;2022-10-04T11:42:17;16.80;99.90
47765;DHT22;33529;49.242;8.670;2022-10-04T11:45:13;16.60;99.90
47765;DHT22;33529;49.242;8.670;2022-10-04T12:07:18;16.60;99.90
47765;DHT22;33529;49.242;8.670;2022-10-04T12:21:09;16.50;99.90
47765;DHT22;33529;49.242;8.670;2022-10-04T12:26:29;16.50;99.90
47765;DHT22;33529;49.242;8.670;2022-10-04T12:29:24;16.40;99.90
47765;DHT22;33529;49.242;8.670;2022-10-04T12:31:59;16.40;99.90
47765;DHT22;33529;49.242;8.670;2022-10-04T12:34:43;16.40;99.90
47765;DHT22;33529;49.242;8.670;2022-10-04T12:42:52;16.60;99.90
47765;DHT22;33529;49.242;8.670;2022-10-04T13:00:13;16.90;99.90
47765;DHT22;33529;49.242;8.670;2022-10-04T13:16:49;17.00;99.90
47765;DHT22;33529;49.242;8.670;2022-10-04T13:22:21;17.10;99.90
47765;DHT22;33529;49.242;8.670;2022-10-04T13:31:21;17.10;99.90
47765;DHT22;33529;49.242;8.670;2022-10-04T13:34:12;17.10;99.90
47765;DHT22;33529;49.242;8.670;2022-10-04T13:45:36;17.30;99.90
47765;DHT22;33529;49.242;8.670;2022-10-04T13:48:16;17.30;99.90
47765;DHT22;33529;49.242;8.670;2022-10-04T13:56:59;17.40;99.90
47765;DHT22;33529;49.242;8.670;2022-10-04T13:59:52;17.50;99.90
47765;DHT22;33529;49.242;8.670;2022-10-04T14:02:47;17.50;99.90
47765;DHT22;33529;49.242;8.670;2022-10-04T14:18:46;17.30;99.90
47765;DHT22;33529;49.242;8.670;2022-10-04T14:21:32;17.30;99.90
47765;DHT22;33529;49.242;8.670;2022-10-04T14:29:54;17.30;99.90
47765;DHT22;33529;49.242;8.670;2022-10-04T14:35:32;17.40;99.90
47765;DHT22;33529;49.242;8.670;2022-10-04T14:43:32;17.40;99.90
47765;DHT22;33529;49.242;8.670;2022-10-04T14:48:59;17.50;99.90
47765;DHT22;33529;49.242;8.670;2022-10-04T14:54:25;17.50;99.90
47765;DHT22;33529;49.242;8.670;2022-10-04T14:59:59;17.40;99.90
47765;DHT22;33529;49.242;8.670;2022-10-04T15:10:58;17.40;99.90
47765;DHT22;33529;49.242;8.670;2022-10-04T15:29:44;17.30;99.90
47765;DHT22;33529;49.242;8.670;2022-10-04T15:35:15;17.20;99.90
47765;DHT22;33529;49.242;8.670;2022-10-04T15:37:57;17.20;99.90
47765;DHT22;33529;49.242;8.670;2022-10-04T15:40:33;17.10;99.90
47765;DHT22;33529;49.242;8.670;2022-10-04T15:57:34;16.90;99.90
47765;DHT22;33529;49.242;8.670;2022-10-04T16:00:24;16.80;99.90
47765;DHT22;33529;49.242;8.670;2022-10-04T16:05:57;16.80;99.90
47765;DHT22;33529;49.242;8.670;2022-10-04T16:14:06;16.50;99.90
47765;DHT22;33529;49.242;8.670;2022-10-04T16:23:25;16.40;99.90
47765;DHT22;33529;49.242;8.670;2022-10-04T16:27:02;16.40;99.90
47765;DHT22;33529;49.242;8.670;2022-10-04T16:34:57;16.20;99.90
47765;DHT22;33529;49.242;8.670;2022-10-04T16:40:34;15.90;99.90
47765;DHT22;33529;49.242;8.670;2022-10-04T16:43:12;15.80;99.90
47765;DHT22;33529;49.242;8.670;2022-10-04T16:57:19;15.20;99.90
47765;DHT22;33529;49.242;8.670;2022-10-04T17:05:02;15.00;99.90
47765;DHT22;33529;49.242;8.670;2022-10-04T17:07:56;14.80;99.90
47765;DHT22;33529;49.242;8.670;2022-10-04T17:10:57;14.70;99.90
47765;DHT22;33529;49.242;8.670;2022-10-04T17:13:34;14.60;99.90
47765;DHT22;33529;49.242;8.670;2022-10-04T17:16:08;14.40;99.90
47765;DHT22;33529;49.242;8.670;2022-10-04T17:21:47;14.20;99.90
47765;DHT22;33529;49.242;8.670;2022-10-04T17:38:02;13.60;99.90
47765;DHT22;33529;49.242;8.670;2022-10-04T17:48:30;13.20;99.90
47765;DHT22;33529;49.242;8.670;2022-10-04T17:54:18;13.10;99.90
47765;DHT22;33529;49.242;8.670;2022-10-04T17:59:43;13.00;99.90
47765;DHT22;33529;49.242;8.670;2022-10-04T18:02:43;13.00;99.90
47765;DHT22;33529;49.242;8.670;2022-10-04T18:05:30;12.80;99.90
47765;DHT22;33529;49.242;8.670;2022-10-04T18:08:12;12.70;99.90
47765;DHT22;33529;49.242;8.670;2022-10-04T18:10:47;12.60;99.90
47765;DHT22;33529;49.242;8.670;2022-10-04T18:13:18;12.50;99.90
47765;DHT22;33529;49.242;8.670;2022-10-04T18:16:22;12.50;99.90
47765;DHT22;33529;49.242;8.670;2022-10-04T18:18:49;12.50;99.90
47765;DHT22;33529;49.242;8.670;2022-10-04T18:21:29;12.50;99.90
47765;DHT22;33529;49.242;8.670;2022-10-04T18:27:12;12.40;99.90
47765;DHT22;33529;49.242;8.670;2022-10-04T18:29:42;12.30;99.90
47765;DHT22;33529;49.242;8.670;2022-10-04T18:32:33;12.30;99.90
47765;DHT22;33529;49.242;8.670;2022-10-04T18:35:22;12.30;99.90
47765;DHT22;33529;49.242;8.670;2022-10-04T18:37:56;12.20;99.90
47765;DHT22;33529;49.242;8.670;2022-10-04T18:40:31;12.10;99.90
47765;DHT22;33529;49.242;8.670;2022-10-04T18:42:58;12.10;99.90
47765;DHT22;33529;49.242;8.670;2022-10-04T18:45:30;12.00;99.90
47765;DHT22;33529;49.242;8.670;2022-10-04T18:48:01;11.90;99.90
47765;DHT22;33529;49.242;8.670;2022-10-04T18:50:40;11.90;99.90
47765;DHT22;33529;49.242;8.670;2022-10-04T18:53:41;11.80;99.90
47765;DHT22;33529;49.242;8.670;2022-10-04T18:56:10;11.70;99.90
47765;DHT22;33529;49.242;8.670;2022-10-04T19:02:08;11.60;99.90
47765;DHT22;33529;49.242;8.670;2022-10-04T19:15:33;11.40;99.90
47765;DHT22;33529;49.242;8.670;2022-10-04T19:24:12;11.30;99.90
47765;DHT22;33529;49.242;8.670;2022-10-04T19:26:46;11.20;99.90
47765;DHT22;33529;49.242;8.670;2022-10-04T19:29:38;11.20;99.90
47765;DHT22;33529;49.242;8.670;2022-10-04T19:41:28;11.10;99.90
47765;DHT22;33529;49.242;8.670;2022-10-04T19:46:49;11.00;99.90
47765;DHT22;33529;49.242;8.670;2022-10-04T19:55:19;10.90;99.90
47765;DHT22;33529;49.242;8.670;2022-10-04T19:57:50;10.90;99.90
47765;DHT22;33529;49.242;8.670;2022-10-04T20:00:19;10.90;99.90
47765;DHT22;33529;49.242;8.670;2022-10-04T20:02:47;10.90;99.90
47765;DHT22;33529;49.242;8.670;2022-10-04T20:05:20;10.90;99.90
47765;DHT22;33529;49.242;8.670;2022-10-04T20:07:57;10.80;99.90
47765;DHT22;33529;49.242;8.670;2022-10-04T20:10:34;10.70;99.90
47765;DHT22;33529;49.242;8.670;2022-10-04T20:13:18;10.50;99.90
47765;DHT22;33529;49.242;8.670;2022-10-04T20:15:53;10.50;99.90
47765;DHT22;33529;49.242;8.670;2022-10-04T20:26:10;10.20;99.90
47765;DHT22;33529;49.242;8.670;2022-10-04T20:28:39;10.30;99.90
47765;DHT22;33529;49.242;8.670;2022-10-04T20:31:09;10.40;99.90
47765;DHT22;33529;49.242;8.670;2022-10-04T20:36:09;10.40;99.90
47765;DHT22;33529;49.242;8.670;2022-10-04T20:38:56;10.50;99.90
47765;DHT22;33529;49.242;8.670;2022-10-04T20:44:53;10.50;99.90
47765;DHT22;33529;49.242;8.670;2022-10-04T20:47:55;10.50;99.90
47765;DHT22;33529;49.242;8.670;2022-10-04T20:50:38;10.50;99.90
47765;DHT22;33529;49.242;8.670;2022-10-04T20:53:21;10.60;99.90
47765;DHT22;33529;49.242;8.670;2022-10-04T20:55:49;10.60;99.90
47765;DHT22;33529;49.242;8.670;2022-10-04T20:58:20;10.60;99.90
47765;DHT22;33529;49.242;8.670;2022-10-04T21:00:54;10.70;99.90
47765;DHT22;33529;49.242;8.670;2022-10-04T21:03:22;10.70;99.90
47765;DHT22;33529;49.242;8.670;2022-10-04T21:06:04;10.70;99.90
47765;DHT22;33529;49.242;8.670;2022-10-04T21:08:31;10.70;99.90
47765;DHT22;33529;49.242;8.670;2022-10-04T21:11:19;10.70;99.90
47765;DHT22;33529;49.242;8.670;2022-10-04T21:16:35;10.70;99.90
47765;DHT22;33529;49.242;8.670;2022-10-04T21:21:59;10.60;99.90
47765;DHT22;33529;49.242;8.670;2022-10-04T21:24:38;10.60;99.90
47765;DHT22;33529;49.242;8.670;2022-10-04T21:27:07;10.50;99.90
47765;DHT22;33529;49.242;8.670;2022-10-04T21:29:37;10.50;99.90
47765;DHT22;33529;49.242;8.670;2022-10-04T21:32:04;10.40;99.90
47765;DHT22;33529;49.242;8.670;2022-10-04T21:34:31;10.30;99.90
47765;DHT22;33529;49.242;8.670;2022-10-04T21:37:18;10.20;99.90
47765;DHT22;33529;49.242;8.670;2022-10-04T21:39:45;10.10;99.90
47765;DHT22;33529;49.242;8.670;2022-10-04T21:42:12;10.10;99.90
47765;DHT22;33529;49.242;8.670;2022-10-04T21:44:39;10.00;99.90
47765;DHT22;33529;49.242;8.670;2022-10-04T21:47:08;10.00;99.90
47765;DHT22;33529;49.242;8.670;2022-10-04T21:49:35;9.90;99.90
47765;DHT22;33529;49.242;8.670;2022-10-04T21:52:02;9.90;99.90
47765;DHT22;33529;49.242;8.670;2022-10-04T21:54:29;10.00;99.90
47765;DHT22;33529;49.242;8.670;2022-10-04T21:56:56;10.20;99.90
47765;DHT22;33529;49.242;8.670;2022-10-04T21:59:23;10.20;99.90
47765;DHT22;33529;49.242;8.670;2022-10-04T22:01:49;10.10;99.90
47765;DHT22;33529;49.242;8.670;2022-10-04T22:04:16;10.00;99.90
47765;DHT22;33529;49.242;8.670;2022-10-04T22:06:43;9.90;99.90
47765;DHT22;33529;49.242;8.670;2022-10-04T22:09:10;9.90;99.90
47765;DHT22;33529;49.242;8.670;2022-10-04T22:11:37;9.80;99.90
47765;DHT22;33529;49.242;8.670;2022-10-04T22:14:04;9.80;99.90
47765;DHT22;33529;49.242;8.670;2022-10-04T22:16:30;9.80;99.90
47765;DHT22;33529;49.242;8.670;2022-10-04T22:18:57;9.70;99.90
47765;DHT22;33529;49.242;8.670;2022-10-04T22:21:24;9.70;99.90
47765;DHT22;33529;49.242;8.670;2022-10-04T22:23:51;9.70;99.90
47765;DHT22;33529;49.242;8.670;2022-10-04T22:26:20;9.80;99.90
47765;DHT22;33529;49.242;8.670;2022-10-04T22:28:54;9.80;99.90
47765;DHT22;33529;49.242;8.670;2022-10-04T22:31:25;9.80;99.90
47765;DHT22;33529;49.242;8.670;2022-10-04T22:33:53;9.90;99.90
47765;DHT22;33529;49.242;8.670;2022-10-04T22:36:37;10.00;99.90
47765;DHT22;33529;49.242;8.670;2022-10-04T22:41:37;10.00;99.90
47765;DHT22;33529;49.242;8.670;2022-10-04T22:44:14;10.10;99.90
47765;DHT22;33529;49.242;8.670;2022-10-04T22:46:44;10.20;99.90
47765;DHT22;33529;49.242;8.670;2022-10-04T22:49:15;10.20;99.90
47765;DHT22;33529;49.242;8.670;2022-10-04T22:51:47;10.30;99.90
47765;DHT22;33529;49.242;8.670;2022-10-04T22:54:23;10.30;99.90
47765;DHT22;33529;49.242;8.670;2022-10-04T22:56:51;10.30;99.90
47765;DHT22;33529;49.242;8.670;2022-10-04T22:59:19;10.30;99.90
47765;DHT22;33529;49.242;8.670;2022-10-04T23:01:47;10.30;99.90
47765;DHT22;33529;49.242;8.670;2022-10-04T23:04:22;10.30;99.90
47765;DHT22;33529;49.242;8.670;2022-10-04T23:06:50;10.30;99.90
47765;DHT22;33529;49.242;8.670;2022-10-04T23:09:17;10.30;99.90
47765;DHT22;33529;49.242;8.670;2022-10-04T23:11:44;10.30;99.90
47765;DHT22;33529;49.242;8.670;2022-10-04T23:14:11;10.30;99.90
47765;DHT22;33529;49.242;8.670;2022-10-04T23:16:38;10.30;99.90
47765;DHT22;33529;49.242;8.670;2022-10-04T23:19:16;10.30;99.90
47765;DHT22;33529;49.242;8.670;2022-10-04T23:21:48;10.30;99.90
47765;DHT22;33529;49.242;8.670;2022-10-04T23:24:21;10.30;99.90
47765;DHT22;33529;49.242;8.670;2022-10-04T23:26:53;10.30;99.90
47765;DHT22;33529;49.242;8.670;2022-10-04T23:29:29;10.20;99.90
47765;DHT22;33529;49.242;8.670;2022-10-04T23:31:57;10.30;99.90
47765;DHT22;33529;49.242;8.670;2022-10-04T23:34:32;10.30;99.90
47765;DHT22;33529;49.242;8.670;2022-10-04T23:36:59;10.30;99.90
47765;DHT22;33529;49.242;8.670;2022-10-04T23:39:29;10.30;99.90
47765;DHT22;33529;49.242;8.670;2022-10-04T23:41:57;10.30;99.90
47765;DHT22;33529;49.242;8.670;2022-10-04T23:44:33;10.30;99.90
47765;DHT22;33529;49.242;8.670;2022-10-04T23:47:00;10.30;99.90
47765;DHT22;33529;49.242;8.670;2022-10-04T23:49:28;10.20;99.90
47765;DHT22;33529;49.242;8.670;2022-10-04T23:51:58;10.20;99.90
47765;DHT22;33529;49.242;8.670;2022-10-04T23:54:27;10.30;99.90
47765;DHT22;33529;49.242;8.670;2022-10-04T23:56:54;10.30;99.90
47765;DHT22;33529;49.242;8.670;2022-10-04T23:59:23;10.30;99.90
